sensor_id;sensor_type;location;lat;lon;timestamp;pressure;altitude;pressure_sealevel;temperature
80496;BMP180;69819;48.798;11.770;2023-06-10T00:02:09;97197.00;;;18.90
80496;BMP180;69819;48.798;11.770;2023-06-10T00:04:35;97235.00;;;18.90
80496;BMP180;69819;48.798;11.770;2023-06-10T00:07:04;97203.00;;;18.80
80496;BMP180;69819;48.798;11.770;2023-06-10T00:09:37;97224.00;;;18.80
80496;BMP180;69819;48.798;11.770;2023-06-10T00:12:08;97244.00;;;18.70
80496;BMP180;69819;48.798;11.770;2023-06-10T00:14:37;97168.00;;;18.70
80496;BMP180;69819;48.798;11.770;2023-06-10T00:17:04;97222.00;;;18.70
80496;BMP180;69819;48.798;11.770;2023-06-10T00:19:30;97210.00;;;18.60
80496;BMP180;69819;48.798;11.770;2023-06-10T00:21:57;97234.00;;;18.40
80496;BMP180;69819;48.798;11.770;2023-06-10T00:24:23;97199.00;;;18.60
80496;BMP180;69819;48.798;11.770;2023-06-10T00:26:49;97223.00;;;18.50
80496;BMP180;69819;48.798;11.770;2023-06-10T00:29:15;97242.00;;;18.50
80496;BMP180;69819;48.798;11.770;2023-06-10T00:31:41;97120.00;;;18.50
80496;BMP180;69819;48.798;11.770;2023-06-10T00:34:07;97219.00;;;18.50
80496;BMP180;69819;48.798;11.770;2023-06-10T00:36:33;97220.00;;;18.50
80496;BMP180;69819;48.798;11.770;2023-06-10T00:38:59;97147.00;;;18.40
80496;BMP180;69819;48.798;11.770;2023-06-10T00:41:25;97213.00;;;18.40
80496;BMP180;69819;48.798;11.770;2023-06-10T00:43:54;97198.00;;;18.30
80496;BMP180;69819;48.798;11.770;2023-06-10T00:46:21;97227.00;;;18.30
80496;BMP180;69819;48.798;11.770;2023-06-10T00:48:49;97191.00;;;18.30
80496;BMP180;69819;48.798;11.770;2023-06-10T00:51:16;97122.00;;;18.20
80496;BMP180;69819;48.798;11.770;2023-06-10T00:53:43;97212.00;;;18.20
80496;BMP180;69819;48.798;11.770;2023-06-10T00:56:10;97204.00;;;18.10
80496;BMP180;69819;48.798;11.770;2023-06-10T00:58:36;97224.00;;;18.10
80496;BMP180;69819;48.798;11.770;2023-06-10T01:01:03;97155.00;;;18.00
80496;BMP180;69819;48.798;11.770;2023-06-10T01:03:30;97143.00;;;18.00
80496;BMP180;69819;48.798;11.770;2023-06-10T01:08:55;97211.00;;;17.80
80496;BMP180;69819;48.798;11.770;2023-06-10T01:11:29;97192.00;;;17.80
80496;BMP180;69819;48.798;11.770;2023-06-10T01:14:00;97188.00;;;17.80
80496;BMP180;69819;48.798;11.770;2023-06-10T01:16:27;97164.00;;;17.60
80496;BMP180;69819;48.798;11.770;2023-06-10T01:18:54;97202.00;;;17.70
80496;BMP180;69819;48.798;11.770;2023-06-10T01:21:21;97207.00;;;17.70
80496;BMP180;69819;48.798;11.770;2023-06-10T01:23:52;97183.00;;;17.60
80496;BMP180;69819;48.798;11.770;2023-06-10T01:26:25;97215.00;;;17.50
80496;BMP180;69819;48.798;11.770;2023-06-10T01:29:11;97057.00;;;17.50
80496;BMP180;69819;48.798;11.770;2023-06-10T01:34:27;97170.00;;;17.40
80496;BMP180;69819;48.798;11.770;2023-06-10T01:36:57;97068.00;;;17.50
80496;BMP180;69819;48.798;11.770;2023-06-10T01:39:25;97157.00;;;17.50
80496;BMP180;69819;48.798;11.770;2023-06-10T01:41:53;97177.00;;;17.20
80496;BMP180;69819;48.798;11.770;2023-06-10T01:44:21;97200.00;;;17.40
80496;BMP180;69819;48.798;11.770;2023-06-10T01:46:47;97201.00;;;17.40
80496;BMP180;69819;48.798;11.770;2023-06-10T01:49:13;97220.00;;;17.40
80496;BMP180;69819;48.798;11.770;2023-06-10T01:51:39;97222.00;;;17.40
80496;BMP180;69819;48.798;11.770;2023-06-10T01:54:05;97194.00;;;17.30
80496;BMP180;69819;48.798;11.770;2023-06-10T01:56:32;97218.00;;;17.30
80496;BMP180;69819;48.798;11.770;2023-06-10T01:58:58;97144.00;;;17.30
80496;BMP180;69819;48.798;11.770;2023-06-10T02:01:28;97227.00;;;17.30
80496;BMP180;69819;48.798;11.770;2023-06-10T02:03:54;97194.00;;;17.20
80496;BMP180;69819;48.798;11.770;2023-06-10T02:06:20;97149.00;;;17.20
80496;BMP180;69819;48.798;11.770;2023-06-10T02:08:46;97221.00;;;17.20
80496;BMP180;69819;48.798;11.770;2023-06-10T02:11:11;97224.00;;;17.20
80496;BMP180;69819;48.798;11.770;2023-06-10T02:13:38;97214.00;;;17.10
80496;BMP180;69819;48.798;11.770;2023-06-10T02:16:04;97154.00;;;17.20
80496;BMP180;69819;48.798;11.770;2023-06-10T02:18:31;97222.00;;;17.10
80496;BMP180;69819;48.798;11.770;2023-06-10T02:20:57;97223.00;;;17.00
80496;BMP180;69819;48.798;11.770;2023-06-10T02:23:23;97144.00;;;17.10
80496;BMP180;69819;48.798;11.770;2023-06-10T02:25:48;97108.00;;;17.00
80496;BMP180;69819;48.798;11.770;2023-06-10T02:28:14;97215.00;;;17.00
80496;BMP180;69819;48.798;11.770;2023-06-10T02:30:41;97222.00;;;17.00
80496;BMP180;69819;48.798;11.770;2023-06-10T02:33:07;97231.00;;;17.00
80496;BMP180;69819;48.798;11.770;2023-06-10T02:35:39;97225.00;;;16.90
80496;BMP180;69819;48.798;11.770;2023-06-10T02:38:05;97202.00;;;16.90
80496;BMP180;69819;48.798;11.770;2023-06-10T02:40:31;97209.00;;;16.90
80496;BMP180;69819;48.798;11.770;2023-06-10T02:42:57;97178.00;;;16.90
80496;BMP180;69819;48.798;11.770;2023-06-10T02:45:24;97177.00;;;16.90
80496;BMP180;69819;48.798;11.770;2023-06-10T02:47:50;97189.00;;;16.80
80496;BMP180;69819;48.798;11.770;2023-06-10T02:50:16;97231.00;;;16.80
80496;BMP180;69819;48.798;11.770;2023-06-10T02:52:43;97199.00;;;16.40
80496;BMP180;69819;48.798;11.770;2023-06-10T02:55:09;97220.00;;;16.80
80496;BMP180;69819;48.798;11.770;2023-06-10T02:57:35;97211.00;;;16.70
80496;BMP180;69819;48.798;11.770;2023-06-10T03:00:01;97205.00;;;16.60
80496;BMP180;69819;48.798;11.770;2023-06-10T03:02:29;97169.00;;;16.70
80496;BMP180;69819;48.798;11.770;2023-06-10T03:04:57;97168.00;;;16.70
80496;BMP180;69819;48.798;11.770;2023-06-10T03:07:23;97178.00;;;16.70
80496;BMP180;69819;48.798;11.770;2023-06-10T03:09:50;97193.00;;;16.70
80496;BMP180;69819;48.798;11.770;2023-06-10T03:12:16;97192.00;;;16.60
80496;BMP180;69819;48.798;11.770;2023-06-10T03:14:42;97236.00;;;16.70
80496;BMP180;69819;48.798;11.770;2023-06-10T03:17:08;97180.00;;;16.70
80496;BMP180;69819;48.798;11.770;2023-06-10T03:19:36;97203.00;;;16.60
80496;BMP180;69819;48.798;11.770;2023-06-10T03:22:12;97235.00;;;16.60
80496;BMP180;69819;48.798;11.770;2023-06-10T03:24:38;97177.00;;;16.60
80496;BMP180;69819;48.798;11.770;2023-06-10T03:27:10;97229.00;;;16.40
80496;BMP180;69819;48.798;11.770;2023-06-10T03:29:37;97204.00;;;16.50
80496;BMP180;69819;48.798;11.770;2023-06-10T03:32:03;97211.00;;;16.70
80496;BMP180;69819;48.798;11.770;2023-06-10T03:34:29;97213.00;;;16.70
80496;BMP180;69819;48.798;11.770;2023-06-10T03:36:56;97193.00;;;16.70
80496;BMP180;69819;48.798;11.770;2023-06-10T03:39:22;97171.00;;;16.70
80496;BMP180;69819;48.798;11.770;2023-06-10T03:41:52;97221.00;;;16.80
80496;BMP180;69819;48.798;11.770;2023-06-10T03:44:18;97196.00;;;17.00
80496;BMP180;69819;48.798;11.770;2023-06-10T03:46:43;97182.00;;;17.20
80496;BMP180;69819;48.798;11.770;2023-06-10T03:49:09;97220.00;;;17.40
80496;BMP180;69819;48.798;11.770;2023-06-10T03:51:36;97232.00;;;17.70
80496;BMP180;69819;48.798;11.770;2023-06-10T03:54:02;97208.00;;;18.00
80496;BMP180;69819;48.798;11.770;2023-06-10T03:56:28;97230.00;;;18.40
80496;BMP180;69819;48.798;11.770;2023-06-10T03:58:54;97212.00;;;18.80
80496;BMP180;69819;48.798;11.770;2023-06-10T04:01:21;97246.00;;;19.20
80496;BMP180;69819;48.798;11.770;2023-06-10T04:03:48;97247.00;;;19.60
80496;BMP180;69819;48.798;11.770;2023-06-10T04:06:17;97229.00;;;20.10
80496;BMP180;69819;48.798;11.770;2023-06-10T04:08:42;97235.00;;;20.60
80496;BMP180;69819;48.798;11.770;2023-06-10T04:11:09;97234.00;;;21.00
80496;BMP180;69819;48.798;11.770;2023-06-10T04:13:35;97245.00;;;21.50
80496;BMP180;69819;48.798;11.770;2023-06-10T04:16:02;97172.00;;;21.90
80496;BMP180;69819;48.798;11.770;2023-06-10T04:18:28;97244.00;;;22.40
80496;BMP180;69819;48.798;11.770;2023-06-10T04:20:54;97252.00;;;22.90
80496;BMP180;69819;48.798;11.770;2023-06-10T04:23:21;97270.00;;;23.20
80496;BMP180;69819;48.798;11.770;2023-06-10T04:25:46;97265.00;;;23.80
80496;BMP180;69819;48.798;11.770;2023-06-10T04:28:13;97267.00;;;24.30
80496;BMP180;69819;48.798;11.770;2023-06-10T04:30:39;97271.00;;;24.80
80496;BMP180;69819;48.798;11.770;2023-06-10T04:33:05;97268.00;;;25.20
80496;BMP180;69819;48.798;11.770;2023-06-10T04:35:32;97267.00;;;25.70
80496;BMP180;69819;48.798;11.770;2023-06-10T04:37:58;97268.00;;;26.20
80496;BMP180;69819;48.798;11.770;2023-06-10T04:40:24;97265.00;;;26.50
80496;BMP180;69819;48.798;11.770;2023-06-10T04:42:50;97274.00;;;27.00
80496;BMP180;69819;48.798;11.770;2023-06-10T04:45:15;97246.00;;;27.30
80496;BMP180;69819;48.798;11.770;2023-06-10T04:47:41;97253.00;;;27.80
80496;BMP180;69819;48.798;11.770;2023-06-10T04:50:07;97262.00;;;28.20
80496;BMP180;69819;48.798;11.770;2023-06-10T04:52:33;97260.00;;;28.60
80496;BMP180;69819;48.798;11.770;2023-06-10T04:54:59;97259.00;;;28.90
80496;BMP180;69819;48.798;11.770;2023-06-10T04:57:25;97267.00;;;29.30
80496;BMP180;69819;48.798;11.770;2023-06-10T04:59:52;97267.00;;;29.60
80496;BMP180;69819;48.798;11.770;2023-06-10T05:02:18;97277.00;;;29.80
80496;BMP180;69819;48.798;11.770;2023-06-10T05:04:44;97270.00;;;30.10
80496;BMP180;69819;48.798;11.770;2023-06-10T05:07:09;97281.00;;;30.30
80496;BMP180;69819;48.798;11.770;2023-06-10T05:09:35;97271.00;;;30.60
80496;BMP180;69819;48.798;11.770;2023-06-10T05:12:01;97294.00;;;30.80
80496;BMP180;69819;48.798;11.770;2023-06-10T05:14:28;97280.00;;;31.10
80496;BMP180;69819;48.798;11.770;2023-06-10T05:16:54;97278.00;;;31.40
80496;BMP180;69819;48.798;11.770;2023-06-10T05:19:19;97298.00;;;31.70
80496;BMP180;69819;48.798;11.770;2023-06-10T05:21:45;97302.00;;;32.00
80496;BMP180;69819;48.798;11.770;2023-06-10T05:24:12;97304.00;;;32.30
80496;BMP180;69819;48.798;11.770;2023-06-10T05:26:37;97307.00;;;32.50
80496;BMP180;69819;48.798;11.770;2023-06-10T05:29:04;97283.00;;;32.70
80496;BMP180;69819;48.798;11.770;2023-06-10T05:31:31;97297.00;;;33.00
80496;BMP180;69819;48.798;11.770;2023-06-10T05:33:57;97300.00;;;33.40
80496;BMP180;69819;48.798;11.770;2023-06-10T05:36:23;97296.00;;;33.80
80496;BMP180;69819;48.798;11.770;2023-06-10T05:38:51;97301.00;;;34.30
80496;BMP180;69819;48.798;11.770;2023-06-10T05:41:16;97299.00;;;34.70
80496;BMP180;69819;48.798;11.770;2023-06-10T05:43:42;97296.00;;;35.10
80496;BMP180;69819;48.798;11.770;2023-06-10T05:46:08;97304.00;;;35.50
80496;BMP180;69819;48.798;11.770;2023-06-10T05:48:34;97288.00;;;35.80
80496;BMP180;69819;48.798;11.770;2023-06-10T05:50:59;97297.00;;;36.10
80496;BMP180;69819;48.798;11.770;2023-06-10T05:53:25;97310.00;;;36.30
80496;BMP180;69819;48.798;11.770;2023-06-10T05:55:51;97298.00;;;36.50
80496;BMP180;69819;48.798;11.770;2023-06-10T05:58:19;97307.00;;;36.70
80496;BMP180;69819;48.798;11.770;2023-06-10T06:00:45;97315.00;;;36.80
80496;BMP180;69819;48.798;11.770;2023-06-10T06:03:12;97312.00;;;36.80
80496;BMP180;69819;48.798;11.770;2023-06-10T06:05:37;97313.00;;;36.80
80496;BMP180;69819;48.798;11.770;2023-06-10T06:08:05;97297.00;;;36.80
80496;BMP180;69819;48.798;11.770;2023-06-10T06:10:31;97308.00;;;36.90
80496;BMP180;69819;48.798;11.770;2023-06-10T06:12:57;97301.00;;;37.10
80496;BMP180;69819;48.798;11.770;2023-06-10T06:15:22;97300.00;;;37.30
80496;BMP180;69819;48.798;11.770;2023-06-10T06:17:48;97280.00;;;37.50
80496;BMP180;69819;48.798;11.770;2023-06-10T06:20:14;97306.00;;;37.80
80496;BMP180;69819;48.798;11.770;2023-06-10T06:22:40;97310.00;;;38.10
80496;BMP180;69819;48.798;11.770;2023-06-10T06:25:06;97294.00;;;38.50
80496;BMP180;69819;48.798;11.770;2023-06-10T06:27:32;97316.00;;;38.80
80496;BMP180;69819;48.798;11.770;2023-06-10T06:29:57;97315.00;;;39.20
80496;BMP180;69819;48.798;11.770;2023-06-10T06:32:25;97312.00;;;39.50
80496;BMP180;69819;48.798;11.770;2023-06-10T06:34:53;97316.00;;;39.70
80496;BMP180;69819;48.798;11.770;2023-06-10T06:37:24;97327.00;;;39.80
80496;BMP180;69819;48.798;11.770;2023-06-10T06:39:51;97320.00;;;39.80
80496;BMP180;69819;48.798;11.770;2023-06-10T06:42:17;97318.00;;;39.90
80496;BMP180;69819;48.798;11.770;2023-06-10T06:44:44;97320.00;;;40.10
80496;BMP180;69819;48.798;11.770;2023-06-10T06:47:10;97318.00;;;40.10
80496;BMP180;69819;48.798;11.770;2023-06-10T06:49:36;97323.00;;;40.20
80496;BMP180;69819;48.798;11.770;2023-06-10T06:52:03;97323.00;;;40.20
80496;BMP180;69819;48.798;11.770;2023-06-10T06:54:29;97316.00;;;40.20
80496;BMP180;69819;48.798;11.770;2023-06-10T06:56:55;97321.00;;;40.20
80496;BMP180;69819;48.798;11.770;2023-06-10T06:59:20;97315.00;;;40.30
80496;BMP180;69819;48.798;11.770;2023-06-10T07:01:46;97319.00;;;40.30
80496;BMP180;69819;48.798;11.770;2023-06-10T07:04:14;97304.00;;;40.40
80496;BMP180;69819;48.798;11.770;2023-06-10T07:06:40;97327.00;;;40.50
80496;BMP180;69819;48.798;11.770;2023-06-10T07:09:08;97307.00;;;40.80
80496;BMP180;69819;48.798;11.770;2023-06-10T07:11:36;97319.00;;;41.10
80496;BMP180;69819;48.798;11.770;2023-06-10T07:14:02;97325.00;;;41.40
80496;BMP180;69819;48.798;11.770;2023-06-10T07:16:28;97328.00;;;41.70
80496;BMP180;69819;48.798;11.770;2023-06-10T07:18:54;97323.00;;;41.90
80496;BMP180;69819;48.798;11.770;2023-06-10T07:21:20;97313.00;;;42.00
80496;BMP180;69819;48.798;11.770;2023-06-10T07:23:46;97326.00;;;42.20
80496;BMP180;69819;48.798;11.770;2023-06-10T07:26:11;97326.00;;;42.10
80496;BMP180;69819;48.798;11.770;2023-06-10T07:28:40;97325.00;;;42.00
80496;BMP180;69819;48.798;11.770;2023-06-10T07:31:07;97325.00;;;41.90
80496;BMP180;69819;48.798;11.770;2023-06-10T07:33:33;97324.00;;;41.60
80496;BMP180;69819;48.798;11.770;2023-06-10T07:35:59;97332.00;;;41.40
80496;BMP180;69819;48.798;11.770;2023-06-10T07:38:26;97324.00;;;41.10
80496;BMP180;69819;48.798;11.770;2023-06-10T07:40:52;97341.00;;;41.00
80496;BMP180;69819;48.798;11.770;2023-06-10T07:43:18;97322.00;;;41.00
80496;BMP180;69819;48.798;11.770;2023-06-10T07:45:44;97331.00;;;41.10
80496;BMP180;69819;48.798;11.770;2023-06-10T07:48:10;97328.00;;;41.10
80496;BMP180;69819;48.798;11.770;2023-06-10T07:50:36;97339.00;;;40.90
80496;BMP180;69819;48.798;11.770;2023-06-10T07:53:02;97321.00;;;40.50
80496;BMP180;69819;48.798;11.770;2023-06-10T07:55:27;97326.00;;;40.00
80496;BMP180;69819;48.798;11.770;2023-06-10T07:57:54;97328.00;;;39.30
80496;BMP180;69819;48.798;11.770;2023-06-10T08:00:21;97331.00;;;38.60
80496;BMP180;69819;48.798;11.770;2023-06-10T08:02:47;97316.00;;;37.80
80496;BMP180;69819;48.798;11.770;2023-06-10T08:05:13;97339.00;;;37.20
80496;BMP180;69819;48.798;11.770;2023-06-10T08:07:40;97320.00;;;36.80
80496;BMP180;69819;48.798;11.770;2023-06-10T08:10:07;97325.00;;;36.60
80496;BMP180;69819;48.798;11.770;2023-06-10T08:12:36;97334.00;;;36.30
80496;BMP180;69819;48.798;11.770;2023-06-10T08:15:02;97321.00;;;36.20
80496;BMP180;69819;48.798;11.770;2023-06-10T08:17:31;97337.00;;;36.20
80496;BMP180;69819;48.798;11.770;2023-06-10T08:19:57;97334.00;;;36.50
80496;BMP180;69819;48.798;11.770;2023-06-10T08:22:23;97328.00;;;36.70
80496;BMP180;69819;48.798;11.770;2023-06-10T08:24:49;97340.00;;;36.90
80496;BMP180;69819;48.798;11.770;2023-06-10T08:27:15;97322.00;;;36.80
80496;BMP180;69819;48.798;11.770;2023-06-10T08:29:40;97317.00;;;36.40
80496;BMP180;69819;48.798;11.770;2023-06-10T08:32:06;97345.00;;;35.80
80496;BMP180;69819;48.798;11.770;2023-06-10T08:34:34;97335.00;;;35.20
80496;BMP180;69819;48.798;11.770;2023-06-10T08:37:02;97327.00;;;34.60
80496;BMP180;69819;48.798;11.770;2023-06-10T08:39:28;97326.00;;;33.90
80496;BMP180;69819;48.798;11.770;2023-06-10T08:44:43;97321.00;;;32.80
80496;BMP180;69819;48.798;11.770;2023-06-10T08:47:16;97333.00;;;32.20
80496;BMP180;69819;48.798;11.770;2023-06-10T08:49:47;97317.00;;;31.90
80496;BMP180;69819;48.798;11.770;2023-06-10T08:52:20;97333.00;;;31.90
80496;BMP180;69819;48.798;11.770;2023-06-10T08:55:04;97339.00;;;32.30
80496;BMP180;69819;48.798;11.770;2023-06-10T08:57:31;97338.00;;;32.80
80496;BMP180;69819;48.798;11.770;2023-06-10T08:59:57;97329.00;;;33.10
80496;BMP180;69819;48.798;11.770;2023-06-10T09:02:27;97337.00;;;33.20
80496;BMP180;69819;48.798;11.770;2023-06-10T09:04:55;97336.00;;;33.00
80496;BMP180;69819;48.798;11.770;2023-06-10T09:07:23;97336.00;;;32.80
80496;BMP180;69819;48.798;11.770;2023-06-10T09:09:49;97312.00;;;32.50
80496;BMP180;69819;48.798;11.770;2023-06-10T09:12:15;97341.00;;;32.30
80496;BMP180;69819;48.798;11.770;2023-06-10T09:14:42;97316.00;;;32.10
80496;BMP180;69819;48.798;11.770;2023-06-10T09:17:08;97351.00;;;31.90
80496;BMP180;69819;48.798;11.770;2023-06-10T09:19:35;97338.00;;;31.60
80496;BMP180;69819;48.798;11.770;2023-06-10T09:22:02;97333.00;;;31.40
80496;BMP180;69819;48.798;11.770;2023-06-10T09:24:29;97327.00;;;31.20
80496;BMP180;69819;48.798;11.770;2023-06-10T09:27:05;97335.00;;;31.00
80496;BMP180;69819;48.798;11.770;2023-06-10T09:29:46;97299.00;;;30.90
80496;BMP180;69819;48.798;11.770;2023-06-10T09:32:12;97314.00;;;30.80
80496;BMP180;69819;48.798;11.770;2023-06-10T09:34:39;97319.00;;;30.80
80496;BMP180;69819;48.798;11.770;2023-06-10T09:37:05;97335.00;;;30.90
80496;BMP180;69819;48.798;11.770;2023-06-10T09:39:31;97331.00;;;30.90
80496;BMP180;69819;48.798;11.770;2023-06-10T09:41:56;97328.00;;;30.80
80496;BMP180;69819;48.798;11.770;2023-06-10T09:44:23;97333.00;;;30.70
80496;BMP180;69819;48.798;11.770;2023-06-10T09:46:51;97323.00;;;30.40
80496;BMP180;69819;48.798;11.770;2023-06-10T09:49:17;97336.00;;;30.20
80496;BMP180;69819;48.798;11.770;2023-06-10T09:51:54;97326.00;;;29.90
80496;BMP180;69819;48.798;11.770;2023-06-10T09:54:21;97330.00;;;29.70
80496;BMP180;69819;48.798;11.770;2023-06-10T09:56:51;97340.00;;;29.50
80496;BMP180;69819;48.798;11.770;2023-06-10T09:59:29;97322.00;;;29.40
80496;BMP180;69819;48.798;11.770;2023-06-10T10:01:57;97345.00;;;29.40
80496;BMP180;69819;48.798;11.770;2023-06-10T10:04:24;97323.00;;;29.40
80496;BMP180;69819;48.798;11.770;2023-06-10T10:06:51;97345.00;;;29.40
80496;BMP180;69819;48.798;11.770;2023-06-10T10:09:17;97330.00;;;29.40
80496;BMP180;69819;48.798;11.770;2023-06-10T10:11:44;97333.00;;;29.40
80496;BMP180;69819;48.798;11.770;2023-06-10T10:14:11;97332.00;;;29.50
80496;BMP180;69819;48.798;11.770;2023-06-10T10:16:41;97336.00;;;29.50
80496;BMP180;69819;48.798;11.770;2023-06-10T10:19:53;97339.00;;;29.50
80496;BMP180;69819;48.798;11.770;2023-06-10T10:22:30;97338.00;;;29.70
80496;BMP180;69819;48.798;11.770;2023-06-10T10:25:02;97330.00;;;29.90
80496;BMP180;69819;48.798;11.770;2023-06-10T10:27:43;97335.00;;;30.20
80496;BMP180;69819;48.798;11.770;2023-06-10T10:30:11;97338.00;;;30.40
80496;BMP180;69819;48.798;11.770;2023-06-10T10:33:26;97325.00;;;30.50
80496;BMP180;69819;48.798;11.770;2023-06-10T10:35:43;97325.00;;;30.50
80496;BMP180;69819;48.798;11.770;2023-06-10T10:38:09;97324.00;;;30.60
80496;BMP180;69819;48.798;11.770;2023-06-10T10:40:37;97330.00;;;30.60
80496;BMP180;69819;48.798;11.770;2023-06-10T10:43:04;97314.00;;;30.60
80496;BMP180;69819;48.798;11.770;2023-06-10T10:45:34;97329.00;;;30.60
80496;BMP180;69819;48.798;11.770;2023-06-10T10:48:08;97331.00;;;30.50
80496;BMP180;69819;48.798;11.770;2023-06-10T10:50:38;97326.00;;;30.60
80496;BMP180;69819;48.798;11.770;2023-06-10T10:53:05;97321.00;;;30.60
80496;BMP180;69819;48.798;11.770;2023-06-10T10:55:32;97324.00;;;30.60
80496;BMP180;69819;48.798;11.770;2023-06-10T10:58:08;97325.00;;;30.60
80496;BMP180;69819;48.798;11.770;2023-06-10T11:00:43;97335.00;;;30.70
80496;BMP180;69819;48.798;11.770;2023-06-10T11:03:15;97334.00;;;30.70
80496;BMP180;69819;48.798;11.770;2023-06-10T11:05:47;97325.00;;;30.80
80496;BMP180;69819;48.798;11.770;2023-06-10T11:16:29;97320.00;;;31.00
80496;BMP180;69819;48.798;11.770;2023-06-10T11:18:56;97322.00;;;31.00
80496;BMP180;69819;48.798;11.770;2023-06-10T11:21:24;97308.00;;;31.00
80496;BMP180;69819;48.798;11.770;2023-06-10T11:23:51;97312.00;;;31.00
80496;BMP180;69819;48.798;11.770;2023-06-10T11:34:03;97321.00;;;30.20
80496;BMP180;69819;48.798;11.770;2023-06-10T11:36:31;97324.00;;;29.90
80496;BMP180;69819;48.798;11.770;2023-06-10T11:39:04;97314.00;;;29.60
80496;BMP180;69819;48.798;11.770;2023-06-10T11:41:32;97313.00;;;29.30
80496;BMP180;69819;48.798;11.770;2023-06-10T11:44:09;97303.00;;;28.80
80496;BMP180;69819;48.798;11.770;2023-06-10T11:46:36;97307.00;;;28.40
80496;BMP180;69819;48.798;11.770;2023-06-10T11:49:03;97313.00;;;28.00
80496;BMP180;69819;48.798;11.770;2023-06-10T11:51:34;97316.00;;;27.70
80496;BMP180;69819;48.798;11.770;2023-06-10T11:54:00;97296.00;;;27.60
80496;BMP180;69819;48.798;11.770;2023-06-10T11:56:28;97299.00;;;27.50
80496;BMP180;69819;48.798;11.770;2023-06-10T11:59:00;97312.00;;;27.50
80496;BMP180;69819;48.798;11.770;2023-06-10T12:01:40;97301.00;;;27.60
80496;BMP180;69819;48.798;11.770;2023-06-10T12:04:13;97313.00;;;27.70
80496;BMP180;69819;48.798;11.770;2023-06-10T12:06:48;97307.00;;;27.70
80496;BMP180;69819;48.798;11.770;2023-06-10T12:11:53;97312.00;;;28.00
80496;BMP180;69819;48.798;11.770;2023-06-10T12:17:23;97303.00;;;28.10
80496;BMP180;69819;48.798;11.770;2023-06-10T12:19:51;97296.00;;;28.10
80496;BMP180;69819;48.798;11.770;2023-06-10T12:22:16;97310.00;;;28.10
80496;BMP180;69819;48.798;11.770;2023-06-10T12:24:56;97303.00;;;28.10
80496;BMP180;69819;48.798;11.770;2023-06-10T12:27:23;97290.00;;;28.20
80496;BMP180;69819;48.798;11.770;2023-06-10T12:29:52;97303.00;;;28.30
80496;BMP180;69819;48.798;11.770;2023-06-10T12:32:22;97281.00;;;28.30
80496;BMP180;69819;48.798;11.770;2023-06-10T12:35:06;97289.00;;;28.40
80496;BMP180;69819;48.798;11.770;2023-06-10T12:37:33;97279.00;;;28.60
80496;BMP180;69819;48.798;11.770;2023-06-10T12:40:02;97296.00;;;28.80
80496;BMP180;69819;48.798;11.770;2023-06-10T12:42:30;97284.00;;;29.00
80496;BMP180;69819;48.798;11.770;2023-06-10T12:44:57;97297.00;;;29.20
80496;BMP180;69819;48.798;11.770;2023-06-10T12:47:35;97287.00;;;29.40
80496;BMP180;69819;48.798;11.770;2023-06-10T12:50:04;97270.00;;;29.50
80496;BMP180;69819;48.798;11.770;2023-06-10T12:52:30;97266.00;;;29.50
80496;BMP180;69819;48.798;11.770;2023-06-10T12:54:56;97290.00;;;29.40
80496;BMP180;69819;48.798;11.770;2023-06-10T12:57:22;97270.00;;;29.20
80496;BMP180;69819;48.798;11.770;2023-06-10T12:59:48;97279.00;;;29.10
80496;BMP180;69819;48.798;11.770;2023-06-10T13:02:26;97285.00;;;29.00
80496;BMP180;69819;48.798;11.770;2023-06-10T13:04:51;97273.00;;;29.00
80496;BMP180;69819;48.798;11.770;2023-06-10T13:07:18;97254.00;;;29.10
80496;BMP180;69819;48.798;11.770;2023-06-10T13:09:44;97280.00;;;29.10
80496;BMP180;69819;48.798;11.770;2023-06-10T13:12:10;97279.00;;;29.10
80496;BMP180;69819;48.798;11.770;2023-06-10T13:14:37;97283.00;;;29.10
80496;BMP180;69819;48.798;11.770;2023-06-10T13:17:04;97277.00;;;29.20
80496;BMP180;69819;48.798;11.770;2023-06-10T13:19:33;97276.00;;;29.30
80496;BMP180;69819;48.798;11.770;2023-06-10T13:21:59;97262.00;;;29.40
80496;BMP180;69819;48.798;11.770;2023-06-10T13:24:25;97246.00;;;29.50
80496;BMP180;69819;48.798;11.770;2023-06-10T13:26:51;97258.00;;;29.50
80496;BMP180;69819;48.798;11.770;2023-06-10T13:29:17;97266.00;;;29.30
80496;BMP180;69819;48.798;11.770;2023-06-10T13:31:43;97271.00;;;29.30
80496;BMP180;69819;48.798;11.770;2023-06-10T13:34:09;97255.00;;;29.20
80496;BMP180;69819;48.798;11.770;2023-06-10T13:36:34;97260.00;;;29.10
80496;BMP180;69819;48.798;11.770;2023-06-10T13:39:00;97245.00;;;29.00
80496;BMP180;69819;48.798;11.770;2023-06-10T13:41:26;97256.00;;;29.00
80496;BMP180;69819;48.798;11.770;2023-06-10T13:43:54;97256.00;;;29.00
80496;BMP180;69819;48.798;11.770;2023-06-10T13:46:21;97252.00;;;29.00
80496;BMP180;69819;48.798;11.770;2023-06-10T13:48:47;97241.00;;;29.00
80496;BMP180;69819;48.798;11.770;2023-06-10T13:51:13;97259.00;;;29.00
80496;BMP180;69819;48.798;11.770;2023-06-10T13:53:39;97245.00;;;29.10
80496;BMP180;69819;48.798;11.770;2023-06-10T13:56:05;97232.00;;;29.20
80496;BMP180;69819;48.798;11.770;2023-06-10T13:58:30;97186.00;;;29.30
80496;BMP180;69819;48.798;11.770;2023-06-10T14:00:57;97214.00;;;29.30
80496;BMP180;69819;48.798;11.770;2023-06-10T14:03:24;97244.00;;;29.30
80496;BMP180;69819;48.798;11.770;2023-06-10T14:05:50;97256.00;;;29.30
80496;BMP180;69819;48.798;11.770;2023-06-10T14:08:15;97234.00;;;29.20
80496;BMP180;69819;48.798;11.770;2023-06-10T14:10:41;97239.00;;;29.20
80496;BMP180;69819;48.798;11.770;2023-06-10T14:13:07;97231.00;;;29.20
80496;BMP180;69819;48.798;11.770;2023-06-10T14:15:33;97223.00;;;29.20
80496;BMP180;69819;48.798;11.770;2023-06-10T14:17:58;97239.00;;;29.30
80496;BMP180;69819;48.798;11.770;2023-06-10T14:20:24;97226.00;;;29.40
80496;BMP180;69819;48.798;11.770;2023-06-10T14:22:52;97241.00;;;29.50
80496;BMP180;69819;48.798;11.770;2023-06-10T14:25:18;97242.00;;;29.60
80496;BMP180;69819;48.798;11.770;2023-06-10T14:27:44;97226.00;;;29.70
80496;BMP180;69819;48.798;11.770;2023-06-10T14:30:12;97252.00;;;29.80